Athol, Pennsylvania
Current Conditions -  °F | °C
As of 11:13 PM on Wednesday 22 Oct 2014 (Local Time) from KPTW Reporting Station
Overcast Overcast  
Wind Chill: 52°   Ceiling: 2700
Heat Index: 52°   Visibility: 10mi
Dew Point: 45°   Wind: 15mph
Humidity: 77%   Direction: 330°NNW
Pressure: 29.84"   Gusts: 24mph
Location:  40.3194°N, 75.7364°W
Report Text: KPTW 230313Z AUTO 33013G21KT 10SM BKN027 BKN033 OVC049 11/07 A2984 RMK AO2 T01110072
Loading
Personal Weather Stations






























Interactive Weather Map
Tropical Storm Tracking
New forecast layout! Learn more

10-Day Weather Forecast

Advertisements
Track Severe Weather on mobile